Cabinda, Angola
Current Conditions -  °F | °C
As of 3:00 PM on Wednesday 26 Nov 2014 (Local Time) from FCPP Reporting Station
Few Clouds Few Clouds  
Wind Chill: 84°   Ceiling: Unl
Heat Index: 92°   Visibility: 6mi
Dew Point: 75°   Wind: 13mph
Humidity: 74%   Direction: 180°S
Pressure: 29.77"   Gusts: NA
Location:  5.55°S, 12.19°E
Report Text: FCPP 261400Z 18011KT 160V220 9999 FEW016 FEW026TCU 29/24 Q1008 NOSIG
Loading
Personal Weather Stations






























Interactive Weather Map New forecast layout! Learn more

10-Day Weather Forecast

Advertisements
Track Severe Weather on mobile